createdAt,value
2019-03-15T00:00:11.028Z,5.10
2019-03-15T00:02:40.337Z,5.10
2019-03-15T00:05:09.568Z,5.10
2019-03-15T00:07:38.828Z,5.10
2019-03-15T00:10:08.990Z,5.00
2019-03-15T00:12:38.236Z,5.10
2019-03-15T00:15:08.989Z,5.10
2019-03-15T00:17:38.216Z,5.10
2019-03-15T00:20:09.544Z,5.10
2019-03-15T00:22:38.766Z,5.10
2019-03-15T00:25:08.150Z,5.10
2019-03-15T00:27:37.376Z,5.00
2019-03-15T00:30:10.218Z,5.00
2019-03-15T00:32:39.542Z,5.00
2019-03-15T00:35:09.611Z,5.00
2019-03-15T00:37:39.015Z,5.00
2019-03-15T00:40:11.514Z,5.00
2019-03-15T00:42:40.743Z,4.90
2019-03-15T00:45:10.618Z,4.90
2019-03-15T00:47:40.283Z,4.90
2019-03-15T00:50:10.646Z,5.00
2019-03-15T00:52:39.878Z,4.90
2019-03-15T00:55:09.436Z,4.90
2019-03-15T00:57:38.676Z,4.90
2019-03-15T01:00:13.619Z,4.90
2019-03-15T01:02:44.386Z,4.80
2019-03-15T01:05:13.931Z,4.80
2019-03-15T01:07:43.164Z,4.90
2019-03-15T01:10:12.747Z,4.90
2019-03-15T01:12:42.077Z,4.90
2019-03-15T01:15:13.323Z,4.80
2019-03-15T01:17:42.655Z,4.80
2019-03-15T01:20:11.943Z,4.80
2019-03-15T01:22:41.174Z,4.80
2019-03-15T01:25:10.769Z,4.80
2019-03-15T01:27:40.005Z,4.70
2019-03-15T01:30:11.284Z,4.80
2019-03-15T01:32:40.504Z,4.80
2019-03-15T01:35:09.816Z,4.70
2019-03-15T01:37:39.057Z,4.70
2019-03-15T01:40:08.540Z,4.70
2019-03-15T01:42:37.777Z,4.70
2019-03-15T01:45:07.699Z,4.80
2019-03-15T01:47:36.958Z,4.70
2019-03-15T01:50:08.515Z,4.70
2019-03-15T01:52:37.740Z,4.80
2019-03-15T01:55:07.099Z,4.70
2019-03-15T01:57:36.315Z,4.80
2019-03-15T02:00:10.359Z,4.80
2019-03-15T02:02:39.599Z,4.80
2019-03-15T02:05:08.901Z,4.80
2019-03-15T02:07:38.129Z,4.80
2019-03-15T02:10:08.613Z,4.80
2019-03-15T02:12:37.949Z,4.80
2019-03-15T02:15:10.043Z,4.80
2019-03-15T02:17:39.366Z,4.80
2019-03-15T02:20:09.352Z,4.80
2019-03-15T02:22:38.755Z,4.80
2019-03-15T02:25:08.181Z,4.90
2019-03-15T02:27:37.580Z,4.90
2019-03-15T02:30:09.979Z,5.00
2019-03-15T02:32:39.438Z,5.00
2019-03-15T02:35:09.272Z,5.10
2019-03-15T02:37:38.539Z,5.10
2019-03-15T02:40:08.092Z,5.10
2019-03-15T02:42:37.313Z,5.10
2019-03-15T02:45:06.842Z,5.10
2019-03-15T02:47:36.184Z,5.20
2019-03-15T02:50:07.039Z,5.20
2019-03-15T02:52:36.361Z,5.20
2019-03-15T02:55:07.140Z,5.20
2019-03-15T02:57:36.370Z,5.20
2019-03-15T03:00:08.162Z,5.20
2019-03-15T03:02:37.397Z,5.20
2019-03-15T03:05:09.093Z,5.30
2019-03-15T03:07:38.391Z,5.30
2019-03-15T03:10:08.821Z,5.30
2019-03-15T03:12:38.124Z,5.30
2019-03-15T03:15:08.260Z,5.30
2019-03-15T03:17:37.581Z,5.30
2019-03-15T03:20:08.447Z,5.30
2019-03-15T03:22:37.757Z,5.30
2019-03-15T03:25:07.510Z,5.40
2019-03-15T03:27:36.753Z,5.40
2019-03-15T03:30:08.771Z,5.50
2019-03-15T03:32:38.050Z,5.50
2019-03-15T03:35:09.535Z,5.50
2019-03-15T03:37:38.405Z,5.50
2019-03-15T03:40:08.372Z,5.60
2019-03-15T03:42:37.738Z,5.60
2019-03-15T03:45:08.902Z,5.50
2019-03-15T03:47:38.156Z,5.50
2019-03-15T03:50:09.819Z,5.50
2019-03-15T03:52:41.474Z,5.50
2019-03-15T03:55:10.121Z,5.60
2019-03-15T03:57:39.396Z,5.50
2019-03-15T04:00:11.593Z,5.50
2019-03-15T04:02:40.904Z,5.60
2019-03-15T04:05:10.287Z,5.60
2019-03-15T04:07:39.579Z,5.70
2019-03-15T04:10:10.986Z,5.70
2019-03-15T04:12:40.221Z,5.70
2019-03-15T04:15:11.013Z,5.70
2019-03-15T04:17:40.240Z,5.80
2019-03-15T04:20:13.078Z,5.70
2019-03-15T04:22:42.298Z,5.70
2019-03-15T04:25:11.590Z,5.80
2019-03-15T04:27:40.814Z,5.80
2019-03-15T04:30:12.855Z,5.80
2019-03-15T04:32:42.067Z,5.80
2019-03-15T04:35:11.273Z,5.80
2019-03-15T04:37:40.519Z,5.80
2019-03-15T04:40:11.391Z,5.90
2019-03-15T04:42:40.597Z,5.90
2019-03-15T04:45:10.088Z,5.90
2019-03-15T04:47:39.338Z,5.90
2019-03-15T04:50:08.693Z,6.00
2019-03-15T04:52:38.012Z,6.00
2019-03-15T04:55:07.516Z,6.00
2019-03-15T04:57:36.754Z,6.00
2019-03-15T05:00:09.118Z,6.00
2019-03-15T05:02:38.375Z,6.00
2019-03-15T05:05:07.669Z,6.00
2019-03-15T05:07:37.091Z,6.00
2019-03-15T05:10:08.596Z,6.00
2019-03-15T05:12:37.875Z,6.00
2019-03-15T05:15:09.635Z,6.00
2019-03-15T05:17:38.980Z,6.00
2019-03-15T05:20:09.453Z,6.00
2019-03-15T05:22:38.704Z,6.10
2019-03-15T05:25:08.339Z,6.00
2019-03-15T05:27:37.645Z,6.10
2019-03-15T05:30:10.010Z,6.10
2019-03-15T05:32:39.554Z,6.10
2019-03-15T05:35:08.974Z,6.10
2019-03-15T05:37:38.225Z,6.10
2019-03-15T05:40:07.906Z,6.10
2019-03-15T05:42:37.136Z,6.10
2019-03-15T05:45:09.634Z,6.10
2019-03-15T05:47:38.952Z,6.10
2019-03-15T05:50:14.219Z,6.10
2019-03-15T05:52:43.450Z,6.10
2019-03-15T05:55:14.145Z,6.10
2019-03-15T05:57:43.463Z,6.10
2019-03-15T06:00:14.720Z,6.10
2019-03-15T06:02:44.032Z,6.10
2019-03-15T06:05:13.394Z,6.10
2019-03-15T06:07:42.630Z,6.10
2019-03-15T06:10:13.201Z,6.20
2019-03-15T06:12:42.446Z,6.20
2019-03-15T06:15:11.936Z,6.20
2019-03-15T06:17:41.171Z,6.20
2019-03-15T06:20:11.545Z,6.20
2019-03-15T06:22:40.808Z,6.20
2019-03-15T06:25:11.093Z,6.20
2019-03-15T06:27:40.338Z,6.30
2019-03-15T06:30:14.506Z,6.10
2019-03-15T06:32:43.724Z,6.30
2019-03-15T06:35:13.080Z,6.30
2019-03-15T06:37:42.314Z,6.30
2019-03-15T06:40:13.497Z,6.40
2019-03-15T06:42:42.974Z,6.40
2019-03-15T06:45:13.543Z,6.40
2019-03-15T06:47:42.777Z,6.50
2019-03-15T06:50:12.121Z,6.50
2019-03-15T06:52:41.374Z,6.50
2019-03-15T06:55:10.676Z,6.50
2019-03-15T06:57:39.996Z,6.60
2019-03-15T07:00:12.080Z,6.60
2019-03-15T07:02:41.334Z,6.60
2019-03-15T07:05:12.386Z,6.60
2019-03-15T07:07:41.706Z,6.70
2019-03-15T07:10:11.788Z,6.70
2019-03-15T07:12:41.083Z,6.70
2019-03-15T07:15:11.856Z,6.70
2019-03-15T07:17:41.698Z,6.80
2019-03-15T07:20:15.406Z,6.80
2019-03-15T07:22:44.636Z,6.80
2019-03-15T07:25:14.209Z,6.80
2019-03-15T07:27:43.500Z,6.90
2019-03-15T07:30:14.820Z,6.90
2019-03-15T07:32:44.169Z,6.90
2019-03-15T07:35:13.472Z,7.30
2019-03-15T07:37:45.305Z,7.00
2019-03-15T07:40:13.971Z,7.00
2019-03-15T07:42:43.246Z,7.00
2019-03-15T07:45:14.393Z,7.10
2019-03-15T07:47:45.296Z,7.10
2019-03-15T07:50:16.596Z,7.10
2019-03-15T07:52:45.859Z,7.10
2019-03-15T07:55:15.221Z,7.10
2019-03-15T07:57:44.449Z,7.10
2019-03-15T08:00:15.325Z,7.10
2019-03-15T08:02:44.745Z,7.10
2019-03-15T08:05:14.290Z,7.00
2019-03-15T08:07:45.548Z,7.00
2019-03-15T08:10:14.665Z,7.00
2019-03-15T08:12:43.888Z,6.90
2019-03-15T08:15:13.965Z,6.90
2019-03-15T08:17:43.203Z,6.90
2019-03-15T08:20:15.606Z,6.90
2019-03-15T08:22:44.909Z,6.90
2019-03-15T08:25:14.198Z,6.80
2019-03-15T08:27:43.437Z,6.90
2019-03-15T08:30:15.098Z,6.90
2019-03-15T08:33:09.960Z,6.90
2019-03-15T08:35:34.653Z,6.90
2019-03-15T08:38:05.504Z,6.90
2019-03-15T08:40:34.801Z,6.90
2019-03-15T08:43:04.190Z,6.90
2019-03-15T08:45:33.423Z,6.90
2019-03-15T08:48:02.685Z,6.90
2019-03-15T08:50:31.912Z,6.90
2019-03-15T08:53:01.156Z,6.90
2019-03-15T08:55:30.416Z,6.90
2019-03-15T08:58:13.116Z,6.90
2019-03-15T09:00:31.328Z,6.90
2019-03-15T09:03:00.546Z,6.90
2019-03-15T09:05:29.871Z,6.90
2019-03-15T09:07:59.126Z,6.90
2019-03-15T09:10:28.357Z,6.90
2019-03-15T09:12:57.630Z,6.90
2019-03-15T09:15:26.971Z,6.90
2019-03-15T09:17:57.159Z,6.90
2019-03-15T09:20:30.510Z,6.90
2019-03-15T09:23:00.016Z,6.90
2019-03-15T09:25:29.265Z,7.00
2019-03-15T09:27:58.897Z,7.00
2019-03-15T09:30:28.190Z,7.00
2019-03-15T09:32:57.419Z,6.90
2019-03-15T09:35:26.662Z,6.90
2019-03-15T09:37:56.225Z,6.90
2019-03-15T09:40:26.148Z,6.90
2019-03-15T09:42:55.520Z,6.90
2019-03-15T09:45:24.764Z,6.90
2019-03-15T09:47:54.766Z,6.80
2019-03-15T09:50:36.090Z,6.80
2019-03-15T09:52:55.024Z,6.80
2019-03-15T09:55:32.986Z,6.70
2019-03-15T09:58:02.240Z,6.70
2019-03-15T10:00:31.513Z,6.70
2019-03-15T10:03:00.776Z,6.60
2019-03-15T10:05:30.014Z,6.50
2019-03-15T10:07:59.231Z,6.50
2019-03-15T10:10:28.449Z,6.40
2019-03-15T10:13:05.876Z,6.30
2019-03-15T10:15:28.606Z,6.30
2019-03-15T10:17:57.843Z,6.40
2019-03-15T10:20:27.084Z,6.30
2019-03-15T10:23:05.475Z,6.30
2019-03-15T10:25:27.252Z,6.30
2019-03-15T10:27:56.999Z,6.30
2019-03-15T10:30:26.233Z,6.30
2019-03-15T10:32:55.606Z,6.40
2019-03-15T10:35:24.889Z,6.40
2019-03-15T10:37:54.364Z,6.40
2019-03-15T10:40:24.545Z,6.50
2019-03-15T10:42:55.456Z,6.50
2019-03-15T10:45:24.890Z,6.50
2019-03-15T10:47:54.130Z,6.50
2019-03-15T10:50:23.457Z,6.60
2019-03-15T10:52:53.924Z,6.60
2019-03-15T10:55:23.576Z,6.60
2019-03-15T10:57:52.906Z,6.70
2019-03-15T11:00:22.199Z,6.70
2019-03-15T11:02:51.438Z,6.70
2019-03-15T11:05:20.677Z,6.80
2019-03-15T11:07:50.189Z,6.70
2019-03-15T11:10:19.418Z,6.70
2019-03-15T11:12:48.673Z,6.70
2019-03-15T11:15:18.043Z,6.70
2019-03-15T11:17:48.906Z,6.60
2019-03-15T11:20:18.151Z,6.60
2019-03-15T11:22:47.442Z,6.60
2019-03-15T11:25:16.668Z,6.50
2019-03-15T11:27:45.901Z,6.60
2019-03-15T11:30:15.474Z,6.60
2019-03-15T11:32:44.787Z,6.50
2019-03-15T11:35:14.093Z,6.60
2019-03-15T11:37:43.306Z,6.60
2019-03-15T11:40:14.761Z,6.60
2019-03-15T11:42:44.059Z,6.60
2019-03-15T11:45:14.019Z,6.60
2019-03-15T11:48:01.403Z,6.60
2019-03-15T11:50:19.987Z,6.70
2019-03-15T11:52:49.424Z,6.70
2019-03-15T11:55:18.727Z,6.70
2019-03-15T11:57:48.746Z,6.80
2019-03-15T12:00:18.873Z,6.80
2019-03-15T12:02:48.261Z,6.80
2019-03-15T12:05:17.505Z,6.90
2019-03-15T12:07:46.748Z,6.90
2019-03-15T12:10:17.691Z,6.90
2019-03-15T12:12:46.968Z,6.90
2019-03-15T12:15:17.252Z,6.90
2019-03-15T12:17:46.566Z,7.00
2019-03-15T12:20:15.955Z,7.00
2019-03-15T12:22:45.167Z,7.00
2019-03-15T12:25:14.571Z,7.00
2019-03-15T12:27:43.836Z,7.00
2019-03-15T12:30:17.559Z,7.00
2019-03-15T12:32:46.815Z,7.00
2019-03-15T12:35:16.617Z,7.10
2019-03-15T12:37:45.909Z,7.10
2019-03-15T12:40:16.405Z,7.10
2019-03-15T12:42:45.711Z,7.10
2019-03-15T12:45:15.725Z,7.10
2019-03-15T12:47:44.963Z,7.20
2019-03-15T12:50:15.153Z,7.20
2019-03-15T12:52:48.773Z,7.30
2019-03-15T12:55:15.878Z,7.30
2019-03-15T12:57:48.788Z,7.40
2019-03-15T13:00:20.154Z,7.40
2019-03-15T13:02:49.463Z,7.50
2019-03-15T13:05:18.704Z,7.60
2019-03-15T13:07:47.966Z,7.70
2019-03-15T13:10:23.175Z,7.70
2019-03-15T13:12:52.561Z,7.80
2019-03-15T13:15:21.777Z,7.90
2019-03-15T13:17:51.249Z,8.00
2019-03-15T13:20:29.450Z,8.10
2019-03-15T13:22:58.833Z,8.20
2019-03-15T13:25:28.062Z,8.30
2019-03-15T13:27:57.287Z,8.40
2019-03-15T13:30:26.953Z,8.40
2019-03-15T13:32:56.187Z,8.50
2019-03-15T13:35:25.430Z,8.50
2019-03-15T13:37:54.673Z,8.60
2019-03-15T13:40:23.904Z,8.70
2019-03-15T13:42:53.224Z,8.70
2019-03-15T13:45:22.448Z,8.80
2019-03-15T13:47:51.713Z,8.80
2019-03-15T13:50:22.482Z,8.90
2019-03-15T13:52:51.750Z,8.90
2019-03-15T13:55:21.003Z,9.00
2019-03-15T13:57:50.318Z,9.10
2019-03-15T14:00:20.013Z,9.10
2019-03-15T14:02:49.276Z,9.20
2019-03-15T14:05:18.585Z,9.20
2019-03-15T14:07:47.798Z,9.30
2019-03-15T14:10:17.451Z,9.30
2019-03-15T14:12:46.824Z,9.40
2019-03-15T14:15:17.708Z,9.40
2019-03-15T14:17:46.951Z,9.50
2019-03-15T14:20:16.344Z,9.50
2019-03-15T14:22:49.349Z,9.50
2019-03-15T14:25:24.020Z,9.50
2019-03-15T14:27:53.678Z,9.60
2019-03-15T14:30:22.912Z,9.60
2019-03-15T14:32:52.158Z,9.60
2019-03-15T14:35:21.456Z,9.60
2019-03-15T14:37:50.756Z,9.70
2019-03-15T14:40:20.181Z,9.70
2019-03-15T14:42:49.660Z,9.70
2019-03-15T14:45:19.040Z,9.70
2019-03-15T14:47:48.336Z,9.70
2019-03-15T14:50:17.556Z,9.80
2019-03-15T14:52:46.881Z,9.80
2019-03-15T14:55:17.056Z,9.80
2019-03-15T14:57:52.665Z,9.80
2019-03-15T15:00:19.605Z,9.80
2019-03-15T15:02:48.994Z,9.90
2019-03-15T15:05:18.215Z,9.90
2019-03-15T15:07:47.559Z,9.90
2019-03-15T15:10:17.637Z,9.90
2019-03-15T15:12:46.990Z,9.90
2019-03-15T15:15:18.531Z,9.90
2019-03-15T15:17:47.774Z,9.90
2019-03-15T15:20:17.015Z,9.90
2019-03-15T15:22:46.306Z,9.90
2019-03-15T15:25:18.318Z,9.90
2019-03-15T15:27:47.538Z,9.90
2019-03-15T15:30:17.899Z,9.90
2019-03-15T15:32:47.197Z,10.00
2019-03-15T15:35:16.466Z,10.00
2019-03-15T15:37:45.780Z,10.10
2019-03-15T15:40:18.801Z,10.20
2019-03-15T15:42:48.118Z,10.20
2019-03-15T15:45:17.422Z,10.20
2019-03-15T15:47:46.655Z,10.20
2019-03-15T15:50:16.431Z,10.20
2019-03-15T15:52:45.687Z,10.20
2019-03-15T15:55:17.081Z,10.20
2019-03-15T15:57:47.115Z,10.20
2019-03-15T16:00:20.348Z,10.10
2019-03-15T16:02:49.574Z,10.20
2019-03-15T16:05:18.832Z,10.10
2019-03-15T16:07:48.085Z,10.10
2019-03-15T16:10:18.403Z,10.10
2019-03-15T16:12:47.954Z,10.10
2019-03-15T16:15:18.557Z,10.10
2019-03-15T16:17:47.886Z,10.00
2019-03-15T16:20:17.248Z,10.00
2019-03-15T16:22:46.499Z,10.00
2019-03-15T16:25:15.835Z,10.00
2019-03-15T16:27:45.269Z,10.00
2019-03-15T16:30:19.786Z,9.90
2019-03-15T16:32:49.122Z,9.90
2019-03-15T16:35:18.356Z,9.80
2019-03-15T16:37:47.644Z,9.80
2019-03-15T16:40:17.105Z,9.80
2019-03-15T16:42:46.348Z,9.70
2019-03-15T16:45:24.215Z,9.70
2019-03-15T16:47:53.466Z,9.70
2019-03-15T16:50:22.810Z,9.70
2019-03-15T16:52:52.047Z,9.70
2019-03-15T16:55:21.371Z,9.60
2019-03-15T16:57:50.617Z,9.70
2019-03-15T17:00:20.017Z,9.70
2019-03-15T17:02:49.425Z,9.70
2019-03-15T17:05:18.697Z,9.70
2019-03-15T17:07:48.063Z,9.70
2019-03-15T17:10:18.654Z,9.80
2019-03-15T17:12:47.900Z,9.80
2019-03-15T17:15:19.679Z,9.90
2019-03-15T17:17:49.722Z,9.90
2019-03-15T17:20:18.964Z,10.00
2019-03-15T17:22:48.207Z,10.00
2019-03-15T17:25:17.498Z,10.00
2019-03-15T17:27:46.758Z,9.90
2019-03-15T17:30:16.938Z,9.90
2019-03-15T17:32:46.165Z,9.90
2019-03-15T17:35:19.299Z,9.90
2019-03-15T17:37:48.612Z,9.90
2019-03-15T17:40:21.593Z,9.90
2019-03-15T17:42:50.829Z,9.90
2019-03-15T17:45:20.174Z,9.90
2019-03-15T17:47:50.240Z,9.90
2019-03-15T17:50:23.828Z,9.90
2019-03-15T17:52:53.144Z,9.90
2019-03-15T17:55:22.446Z,9.90
2019-03-15T17:57:51.877Z,9.90
2019-03-15T18:00:39.969Z,9.90
2019-03-15T18:03:20.864Z,9.90
2019-03-15T18:05:40.594Z,9.90
2019-03-15T18:08:10.114Z,9.90
2019-03-15T18:10:39.367Z,9.90
2019-03-15T18:13:08.667Z,9.90
2019-03-15T18:15:37.914Z,9.90
2019-03-15T18:18:07.212Z,9.90
2019-03-15T18:20:36.534Z,9.90
2019-03-15T18:23:05.948Z,9.80
2019-03-15T18:25:35.187Z,9.80
2019-03-15T18:28:04.639Z,9.80
2019-03-15T18:30:33.873Z,9.80
2019-03-15T18:33:03.123Z,9.80
2019-03-15T18:35:34.138Z,9.80
2019-03-15T18:38:03.766Z,9.80
2019-03-15T18:40:33.011Z,9.80
2019-03-15T18:43:02.225Z,9.90
2019-03-15T18:45:31.542Z,9.90
2019-03-15T18:48:02.440Z,9.90
2019-03-15T18:50:31.685Z,10.00
2019-03-15T18:53:00.925Z,10.00
2019-03-15T18:55:30.211Z,10.00
2019-03-15T18:57:59.469Z,10.00
2019-03-15T19:00:28.937Z,10.00
2019-03-15T19:02:59.957Z,10.00
2019-03-15T19:05:30.323Z,10.00
2019-03-15T19:07:59.661Z,10.00
2019-03-15T19:10:28.965Z,10.00
2019-03-15T19:12:58.208Z,10.00
2019-03-15T19:15:27.452Z,10.10
2019-03-15T19:17:57.453Z,10.10
2019-03-15T19:20:28.350Z,10.10
2019-03-15T19:22:57.623Z,10.10
2019-03-15T19:25:26.863Z,10.10
2019-03-15T19:27:56.409Z,10.10
2019-03-15T19:30:25.658Z,10.10
2019-03-15T19:32:54.910Z,10.00
2019-03-15T19:35:24.197Z,10.00
2019-03-15T19:37:53.850Z,10.00
2019-03-15T19:40:23.113Z,10.00
2019-03-15T19:42:52.431Z,10.00
2019-03-15T19:45:21.677Z,9.90
2019-03-15T19:47:51.307Z,10.00
2019-03-15T19:50:21.263Z,9.90
2019-03-15T19:52:50.559Z,9.90
2019-03-15T19:55:19.893Z,9.90
2019-03-15T19:57:49.158Z,9.90
2019-03-15T20:00:19.901Z,9.80
2019-03-15T20:02:49.139Z,9.90
2019-03-15T20:05:18.495Z,9.80
2019-03-15T20:08:07.079Z,9.80
2019-03-15T20:10:36.459Z,9.80
2019-03-15T20:13:05.820Z,9.80
2019-03-15T20:15:35.091Z,9.80
2019-03-15T20:18:04.443Z,9.80
2019-03-15T20:20:33.669Z,9.80
2019-03-15T20:23:08.913Z,9.70
2019-03-15T20:25:38.143Z,9.80
2019-03-15T20:28:07.474Z,9.70
2019-03-15T20:30:36.712Z,9.70
2019-03-15T20:33:05.946Z,9.70
2019-03-15T20:35:35.193Z,9.70
2019-03-15T20:38:23.824Z,9.70
2019-03-15T20:40:53.156Z,9.70
2019-03-15T20:43:22.413Z,9.70
2019-03-15T20:45:51.632Z,9.70
2019-03-15T20:48:23.680Z,9.70
2019-03-15T20:50:52.913Z,9.70
2019-03-15T20:53:22.156Z,9.70
2019-03-15T20:55:51.526Z,9.70
2019-03-15T20:58:22.466Z,9.70
2019-03-15T21:00:51.908Z,9.70
2019-03-15T21:03:21.144Z,9.70
2019-03-15T21:05:50.403Z,9.70
2019-03-15T21:08:20.302Z,9.70
2019-03-15T21:10:51.463Z,9.70
2019-03-15T21:13:20.505Z,9.70
2019-03-15T21:15:49.786Z,9.70
2019-03-15T21:18:19.010Z,9.70
2019-03-15T21:20:48.281Z,9.70
2019-03-15T21:23:17.540Z,9.70
2019-03-15T21:25:46.826Z,9.80
2019-03-15T21:28:16.116Z,9.80
2019-03-15T21:30:48.678Z,9.80
2019-03-15T21:33:16.352Z,9.80
2019-03-15T21:35:45.576Z,9.80
2019-03-15T21:38:15.237Z,9.80
2019-03-15T21:40:44.480Z,9.80
2019-03-15T21:43:13.714Z,9.80
2019-03-15T21:45:42.944Z,9.80
2019-03-15T21:48:12.544Z,9.80
2019-03-15T21:50:41.767Z,9.80
2019-03-15T21:53:11.029Z,9.80
2019-03-15T21:55:41.300Z,9.80
2019-03-15T21:58:10.609Z,9.80
2019-03-15T22:00:39.868Z,9.80
2019-03-15T22:03:09.124Z,9.80
2019-03-15T22:05:38.356Z,9.90
2019-03-15T22:08:08.163Z,9.90
2019-03-15T22:10:37.496Z,9.90
2019-03-15T22:13:06.748Z,9.90
2019-03-15T22:15:35.976Z,9.90
2019-03-15T22:18:07.426Z,9.90
2019-03-15T22:20:36.678Z,9.90
2019-03-15T22:23:05.958Z,9.90
2019-03-15T22:25:35.219Z,9.90
2019-03-15T22:28:05.980Z,9.90
2019-03-15T22:30:35.212Z,10.00
2019-03-15T22:33:04.550Z,9.90
2019-03-15T22:35:33.827Z,9.90
2019-03-15T22:38:05.029Z,9.90
2019-03-15T22:40:34.060Z,9.90
2019-03-15T22:43:05.128Z,9.90
2019-03-15T22:45:34.346Z,9.90
2019-03-15T22:48:04.382Z,9.90
2019-03-15T22:50:33.592Z,9.90
2019-03-15T22:53:02.840Z,9.90
2019-03-15T22:55:32.062Z,9.90
2019-03-15T22:58:01.925Z,10.00
2019-03-15T23:00:37.982Z,10.00
2019-03-15T23:03:07.277Z,10.00
2019-03-15T23:05:36.539Z,10.00
2019-03-15T23:08:05.784Z,10.00
2019-03-15T23:10:35.038Z,10.10
2019-03-15T23:13:04.503Z,10.00
2019-03-15T23:15:33.850Z,10.10
2019-03-15T23:18:03.828Z,10.10
2019-03-15T23:20:52.442Z,10.10
2019-03-15T23:23:24.217Z,10.10
2019-03-15T23:25:52.602Z,10.10
2019-03-15T23:28:21.831Z,10.10
2019-03-15T23:30:51.060Z,10.20
2019-03-15T23:33:20.331Z,10.10
2019-03-15T23:35:54.120Z,10.20
2019-03-15T23:38:20.570Z,10.20
2019-03-15T23:40:49.818Z,10.20
2019-03-15T23:43:19.064Z,10.10
2019-03-15T23:45:48.282Z,10.20
2019-03-15T23:48:18.380Z,10.20
2019-03-15T23:50:47.601Z,10.20
2019-03-15T23:53:16.875Z,10.20
2019-03-15T23:55:46.110Z,10.20
2019-03-15T23:58:16.177Z,10.20
